sensor_id;sensor_type;location;lat;lon;timestamp;pressure;altitude;pressure_sealevel;temperature;humidity
57885;BME280;43703;51.060;-0.086;2023-04-08T00:00:46;100941.52;;;3.25;79.10
57885;BME280;43703;51.060;-0.086;2023-04-08T00:03:12;100943.45;;;3.17;77.30
57885;BME280;43703;51.060;-0.086;2023-04-08T00:05:37;100945.11;;;3.60;76.81
57885;BME280;43703;51.060;-0.086;2023-04-08T00:08:04;100943.35;;;3.64;75.72
57885;BME280;43703;51.060;-0.086;2023-04-08T00:10:29;100946.36;;;3.99;75.56
57885;BME280;43703;51.060;-0.086;2023-04-08T00:12:54;100943.09;;;3.38;75.60
57885;BME280;43703;51.060;-0.086;2023-04-08T00:15:20;100940.69;;;3.43;76.66
57885;BME280;43703;51.060;-0.086;2023-04-08T00:17:45;100938.24;;;4.63;72.66
57885;BME280;43703;51.060;-0.086;2023-04-08T00:20:10;100939.44;;;4.63;73.71
57885;BME280;43703;51.060;-0.086;2023-04-08T00:22:36;100939.93;;;4.94;72.58
57885;BME280;43703;51.060;-0.086;2023-04-08T00:25:02;100941.00;;;4.11;74.36
57885;BME280;43703;51.060;-0.086;2023-04-08T00:27:29;100941.29;;;4.97;72.49
57885;BME280;43703;51.060;-0.086;2023-04-08T00:29:53;100939.94;;;5.14;71.45
57885;BME280;43703;51.060;-0.086;2023-04-08T00:32:18;100937.88;;;5.16;70.43
57885;BME280;43703;51.060;-0.086;2023-04-08T00:34:44;100937.09;;;4.56;71.12
57885;BME280;43703;51.060;-0.086;2023-04-08T00:37:09;100935.93;;;4.56;72.46
57885;BME280;43703;51.060;-0.086;2023-04-08T00:39:35;100939.42;;;4.53;70.95
57885;BME280;43703;51.060;-0.086;2023-04-08T00:42:00;100937.39;;;5.43;70.11
57885;BME280;43703;51.060;-0.086;2023-04-08T00:44:25;100937.14;;;4.78;70.32
57885;BME280;43703;51.060;-0.086;2023-04-08T00:46:50;100937.54;;;3.74;75.03
57885;BME280;43703;51.060;-0.086;2023-04-08T00:49:16;100937.60;;;3.45;76.70
57885;BME280;43703;51.060;-0.086;2023-04-08T00:51:41;100940.38;;;3.32;78.77
57885;BME280;43703;51.060;-0.086;2023-04-08T00:54:07;100945.12;;;3.29;78.14
57885;BME280;43703;51.060;-0.086;2023-04-08T00:56:33;100942.23;;;3.84;77.39
57885;BME280;43703;51.060;-0.086;2023-04-08T00:58:58;100943.44;;;4.02;76.98
57885;BME280;43703;51.060;-0.086;2023-04-08T01:01:30;100941.66;;;4.05;76.76
57885;BME280;43703;51.060;-0.086;2023-04-08T01:03:55;100941.75;;;3.03;78.39
57885;BME280;43703;51.060;-0.086;2023-04-08T01:06:19;100941.19;;;3.65;77.72
57885;BME280;43703;51.060;-0.086;2023-04-08T01:08:41;100939.37;;;3.16;78.90
57885;BME280;43703;51.060;-0.086;2023-04-08T01:11:07;100936.60;;;3.52;77.76
57885;BME280;43703;51.060;-0.086;2023-04-08T01:13:33;100940.01;;;3.27;77.37
57885;BME280;43703;51.060;-0.086;2023-04-08T01:15:56;100937.55;;;3.00;78.54
57885;BME280;43703;51.060;-0.086;2023-04-08T01:18:21;100938.05;;;3.70;77.35
57885;BME280;43703;51.060;-0.086;2023-04-08T01:20:46;100936.84;;;4.09;76.53
57885;BME280;43703;51.060;-0.086;2023-04-08T01:23:20;100937.68;;;4.06;75.34
57885;BME280;43703;51.060;-0.086;2023-04-08T01:25:37;100937.59;;;3.71;76.35
57885;BME280;43703;51.060;-0.086;2023-04-08T01:28:04;100939.38;;;4.61;73.91
57885;BME280;43703;51.060;-0.086;2023-04-08T01:30:27;100936.46;;;4.69;72.81
57885;BME280;43703;51.060;-0.086;2023-04-08T01:32:53;100935.61;;;4.66;72.00
57885;BME280;43703;51.060;-0.086;2023-04-08T01:35:17;100937.17;;;4.66;72.76
57885;BME280;43703;51.060;-0.086;2023-04-08T01:37:42;100937.42;;;4.29;73.81
57885;BME280;43703;51.060;-0.086;2023-04-08T01:40:08;100931.31;;;4.97;71.95
57885;BME280;43703;51.060;-0.086;2023-04-08T01:42:34;100931.88;;;5.44;70.38
57885;BME280;43703;51.060;-0.086;2023-04-08T01:45:00;100932.76;;;5.14;70.21
57885;BME280;43703;51.060;-0.086;2023-04-08T01:47:24;100932.06;;;5.56;69.26
57885;BME280;43703;51.060;-0.086;2023-04-08T01:49:50;100930.96;;;4.63;70.49
57885;BME280;43703;51.060;-0.086;2023-04-08T01:52:15;100934.84;;;4.95;70.31
57885;BME280;43703;51.060;-0.086;2023-04-08T01:54:40;100937.47;;;4.81;69.78
57885;BME280;43703;51.060;-0.086;2023-04-08T01:57:06;100940.46;;;4.67;70.09
57885;BME280;43703;51.060;-0.086;2023-04-08T01:59:34;100939.21;;;4.71;69.85
57885;BME280;43703;51.060;-0.086;2023-04-08T02:01:56;100939.95;;;4.41;69.95
57885;BME280;43703;51.060;-0.086;2023-04-08T02:04:21;100935.61;;;4.28;70.13
57885;BME280;43703;51.060;-0.086;2023-04-08T02:06:47;100936.56;;;4.19;70.43
57885;BME280;43703;51.060;-0.086;2023-04-08T02:09:12;100934.89;;;4.56;70.30
57885;BME280;43703;51.060;-0.086;2023-04-08T02:11:37;100937.57;;;4.49;69.45
57885;BME280;43703;51.060;-0.086;2023-04-08T02:14:03;100936.82;;;4.15;69.46
57885;BME280;43703;51.060;-0.086;2023-04-08T02:16:34;100940.09;;;4.27;70.65
57885;BME280;43703;51.060;-0.086;2023-04-08T02:18:56;100939.62;;;4.20;70.49
57885;BME280;43703;51.060;-0.086;2023-04-08T02:21:26;100938.01;;;3.88;71.20
57885;BME280;43703;51.060;-0.086;2023-04-08T02:23:48;100937.41;;;4.14;70.97
57885;BME280;43703;51.060;-0.086;2023-04-08T02:26:13;100938.79;;;4.08;70.29
57885;BME280;43703;51.060;-0.086;2023-04-08T02:28:36;100940.91;;;3.88;70.19
57885;BME280;43703;51.060;-0.086;2023-04-08T02:31:02;100941.33;;;4.12;69.96
57885;BME280;43703;51.060;-0.086;2023-04-08T02:33:27;100942.22;;;3.98;69.61
57885;BME280;43703;51.060;-0.086;2023-04-08T02:35:53;100944.59;;;4.09;70.16
57885;BME280;43703;51.060;-0.086;2023-04-08T02:38:18;100944.43;;;3.69;71.72
57885;BME280;43703;51.060;-0.086;2023-04-08T02:40:43;100941.90;;;3.49;74.12
57885;BME280;43703;51.060;-0.086;2023-04-08T02:43:09;100945.50;;;3.06;75.43
57885;BME280;43703;51.060;-0.086;2023-04-08T02:45:38;100947.93;;;3.40;75.19
57885;BME280;43703;51.060;-0.086;2023-04-08T02:48:00;100948.90;;;2.90;77.58
57885;BME280;43703;51.060;-0.086;2023-04-08T02:50:25;100949.14;;;3.03;77.71
57885;BME280;43703;51.060;-0.086;2023-04-08T02:52:51;100949.85;;;3.29;77.98
57885;BME280;43703;51.060;-0.086;2023-04-08T02:55:18;100949.64;;;2.73;77.30
57885;BME280;43703;51.060;-0.086;2023-04-08T02:57:42;100951.08;;;3.01;77.88
57885;BME280;43703;51.060;-0.086;2023-04-08T03:00:09;100947.94;;;3.06;77.32
57885;BME280;43703;51.060;-0.086;2023-04-08T03:02:33;100950.86;;;3.49;76.83
57885;BME280;43703;51.060;-0.086;2023-04-08T03:04:58;100953.08;;;3.03;78.83
57885;BME280;43703;51.060;-0.086;2023-04-08T03:07:23;100955.67;;;3.07;78.74
57885;BME280;43703;51.060;-0.086;2023-04-08T03:09:49;100954.58;;;3.22;77.46
57885;BME280;43703;51.060;-0.086;2023-04-08T03:12:14;100955.66;;;3.47;74.19
57885;BME280;43703;51.060;-0.086;2023-04-08T03:14:40;100958.02;;;3.61;75.79
57885;BME280;43703;51.060;-0.086;2023-04-08T03:17:05;100959.82;;;4.05;72.75
57885;BME280;43703;51.060;-0.086;2023-04-08T03:19:31;100962.24;;;4.08;72.19
57885;BME280;43703;51.060;-0.086;2023-04-08T03:21:57;100960.93;;;3.65;71.55
57885;BME280;43703;51.060;-0.086;2023-04-08T03:24:22;100965.53;;;3.48;72.89
57885;BME280;43703;51.060;-0.086;2023-04-08T03:26:48;100965.23;;;3.68;71.63
57885;BME280;43703;51.060;-0.086;2023-04-08T03:29:13;100968.89;;;3.96;71.48
57885;BME280;43703;51.060;-0.086;2023-04-08T03:31:39;100972.45;;;3.91;70.74
57885;BME280;43703;51.060;-0.086;2023-04-08T03:34:04;100972.45;;;3.37;71.59
57885;BME280;43703;51.060;-0.086;2023-04-08T03:36:29;100971.90;;;3.31;71.67
57885;BME280;43703;51.060;-0.086;2023-04-08T03:38:54;100970.36;;;3.53;71.34
57885;BME280;43703;51.060;-0.086;2023-04-08T03:41:19;100969.68;;;4.04;70.28
57885;BME280;43703;51.060;-0.086;2023-04-08T03:43:44;100969.80;;;3.95;68.59
57885;BME280;43703;51.060;-0.086;2023-04-08T03:46:10;100971.17;;;4.10;68.51
57885;BME280;43703;51.060;-0.086;2023-04-08T03:48:35;100972.73;;;3.60;69.35
57885;BME280;43703;51.060;-0.086;2023-04-08T03:51:00;100973.33;;;3.38;70.14
57885;BME280;43703;51.060;-0.086;2023-04-08T03:53:26;100975.46;;;2.92;71.61
57885;BME280;43703;51.060;-0.086;2023-04-08T03:55:52;100981.41;;;3.74;71.24
57885;BME280;43703;51.060;-0.086;2023-04-08T03:58:17;100981.98;;;3.91;69.81
57885;BME280;43703;51.060;-0.086;2023-04-08T04:00:42;100987.30;;;3.55;68.54
57885;BME280;43703;51.060;-0.086;2023-04-08T04:03:07;100987.67;;;3.76;68.90
57885;BME280;43703;51.060;-0.086;2023-04-08T04:05:32;100986.35;;;3.19;69.47
57885;BME280;43703;51.060;-0.086;2023-04-08T04:07:57;100986.80;;;3.43;70.01
57885;BME280;43703;51.060;-0.086;2023-04-08T04:10:23;100985.11;;;3.11;70.57
57885;BME280;43703;51.060;-0.086;2023-04-08T04:12:49;100986.60;;;3.45;69.83
57885;BME280;43703;51.060;-0.086;2023-04-08T04:15:14;100986.88;;;3.71;69.60
57885;BME280;43703;51.060;-0.086;2023-04-08T04:17:38;100988.85;;;3.39;69.16
57885;BME280;43703;51.060;-0.086;2023-04-08T04:20:05;100988.72;;;3.20;69.85
57885;BME280;43703;51.060;-0.086;2023-04-08T04:22:29;100986.10;;;3.27;69.92
57885;BME280;43703;51.060;-0.086;2023-04-08T04:24:54;100990.73;;;3.39;68.91
57885;BME280;43703;51.060;-0.086;2023-04-08T04:27:19;100993.57;;;3.27;69.50
57885;BME280;43703;51.060;-0.086;2023-04-08T04:29:44;100997.14;;;3.32;69.90
57885;BME280;43703;51.060;-0.086;2023-04-08T04:32:10;100999.30;;;3.32;68.67
57885;BME280;43703;51.060;-0.086;2023-04-08T04:34:35;101002.47;;;3.60;68.36
57885;BME280;43703;51.060;-0.086;2023-04-08T04:37:00;101002.83;;;3.36;67.86
57885;BME280;43703;51.060;-0.086;2023-04-08T04:39:25;101005.73;;;3.28;68.17
57885;BME280;43703;51.060;-0.086;2023-04-08T04:41:50;101009.24;;;3.39;68.24
57885;BME280;43703;51.060;-0.086;2023-04-08T04:44:15;101009.15;;;3.11;68.40
57885;BME280;43703;51.060;-0.086;2023-04-08T04:46:40;101011.09;;;3.76;68.45
57885;BME280;43703;51.060;-0.086;2023-04-08T04:49:05;101012.63;;;2.86;69.70
57885;BME280;43703;51.060;-0.086;2023-04-08T04:51:30;101011.12;;;2.78;70.50
57885;BME280;43703;51.060;-0.086;2023-04-08T04:53:55;101011.09;;;2.78;71.01
57885;BME280;43703;51.060;-0.086;2023-04-08T04:56:21;101015.03;;;2.92;70.79
57885;BME280;43703;51.060;-0.086;2023-04-08T04:58:46;101017.71;;;3.11;70.32
57885;BME280;43703;51.060;-0.086;2023-04-08T05:01:11;101014.77;;;3.43;69.49
57885;BME280;43703;51.060;-0.086;2023-04-08T05:03:37;101015.61;;;3.55;69.48
57885;BME280;43703;51.060;-0.086;2023-04-08T05:06:02;101021.26;;;3.30;69.75
57885;BME280;43703;51.060;-0.086;2023-04-08T05:08:27;101019.47;;;2.94;70.23
57885;BME280;43703;51.060;-0.086;2023-04-08T05:10:52;101021.42;;;3.02;71.28
57885;BME280;43703;51.060;-0.086;2023-04-08T05:13:18;101021.84;;;3.07;71.68
57885;BME280;43703;51.060;-0.086;2023-04-08T05:15:43;101022.51;;;3.48;71.01
57885;BME280;43703;51.060;-0.086;2023-04-08T05:18:08;101022.40;;;3.38;70.40
57885;BME280;43703;51.060;-0.086;2023-04-08T05:20:34;101023.63;;;2.90;72.27
57885;BME280;43703;51.060;-0.086;2023-04-08T05:22:59;101022.91;;;2.95;74.19
57885;BME280;43703;51.060;-0.086;2023-04-08T05:25:24;101023.18;;;2.84;73.89
57885;BME280;43703;51.060;-0.086;2023-04-08T05:27:50;101026.06;;;3.24;72.78
57885;BME280;43703;51.060;-0.086;2023-04-08T05:30:15;101028.38;;;3.35;71.91
57885;BME280;43703;51.060;-0.086;2023-04-08T05:32:41;101033.86;;;3.42;71.24
57885;BME280;43703;51.060;-0.086;2023-04-08T05:35:08;101039.75;;;3.26;71.43
57885;BME280;43703;51.060;-0.086;2023-04-08T05:37:32;101042.90;;;3.35;71.92
57885;BME280;43703;51.060;-0.086;2023-04-08T05:39:57;101047.08;;;3.18;73.21
57885;BME280;43703;51.060;-0.086;2023-04-08T05:42:22;101049.15;;;3.19;72.46
57885;BME280;43703;51.060;-0.086;2023-04-08T05:44:47;101049.76;;;3.53;71.62
57885;BME280;43703;51.060;-0.086;2023-04-08T05:47:13;101048.49;;;3.42;71.39
57885;BME280;43703;51.060;-0.086;2023-04-08T05:49:38;101047.98;;;3.42;74.70
57885;BME280;43703;51.060;-0.086;2023-04-08T05:52:04;101043.90;;;3.63;73.85
57885;BME280;43703;51.060;-0.086;2023-04-08T05:54:29;101045.20;;;3.48;72.63
57885;BME280;43703;51.060;-0.086;2023-04-08T05:56:54;101044.82;;;3.64;72.50
57885;BME280;43703;51.060;-0.086;2023-04-08T05:59:20;101048.05;;;3.89;71.94
57885;BME280;43703;51.060;-0.086;2023-04-08T06:01:45;101050.46;;;3.78;73.02
57885;BME280;43703;51.060;-0.086;2023-04-08T06:04:10;101049.61;;;3.72;73.67
57885;BME280;43703;51.060;-0.086;2023-04-08T06:06:37;101054.86;;;4.01;72.01
57885;BME280;43703;51.060;-0.086;2023-04-08T06:09:01;101058.03;;;4.10;71.59
57885;BME280;43703;51.060;-0.086;2023-04-08T06:11:26;101057.07;;;4.13;71.21
57885;BME280;43703;51.060;-0.086;2023-04-08T06:13:52;101058.40;;;4.59;71.00
57885;BME280;43703;51.060;-0.086;2023-04-08T06:16:18;101064.45;;;4.51;71.02
57885;BME280;43703;51.060;-0.086;2023-04-08T06:18:43;101072.83;;;4.57;70.89
57885;BME280;43703;51.060;-0.086;2023-04-08T06:21:09;101074.36;;;4.87;70.47
57885;BME280;43703;51.060;-0.086;2023-04-08T06:23:33;101074.50;;;4.79;69.88
57885;BME280;43703;51.060;-0.086;2023-04-08T06:25:59;101076.07;;;4.80;70.25
57885;BME280;43703;51.060;-0.086;2023-04-08T06:28:24;101078.35;;;4.49;70.55
57885;BME280;43703;51.060;-0.086;2023-04-08T06:30:49;101085.61;;;4.79;70.90
57885;BME280;43703;51.060;-0.086;2023-04-08T06:33:14;101085.62;;;4.50;69.65
57885;BME280;43703;51.060;-0.086;2023-04-08T06:35:40;101086.37;;;4.51;70.37
57885;BME280;43703;51.060;-0.086;2023-04-08T06:38:05;101088.07;;;4.78;70.79
57885;BME280;43703;51.060;-0.086;2023-04-08T06:40:31;101090.85;;;5.04;70.46
57885;BME280;43703;51.060;-0.086;2023-04-08T06:42:56;101095.75;;;5.14;70.09
57885;BME280;43703;51.060;-0.086;2023-04-08T06:45:22;101098.34;;;5.22;70.28
57885;BME280;43703;51.060;-0.086;2023-04-08T06:47:47;101104.36;;;5.18;70.81
57885;BME280;43703;51.060;-0.086;2023-04-08T06:50:12;101104.81;;;5.40;70.58
57885;BME280;43703;51.060;-0.086;2023-04-08T06:52:37;101106.85;;;5.08;70.09
57885;BME280;43703;51.060;-0.086;2023-04-08T06:55:03;101107.63;;;5.27;70.46
57885;BME280;43703;51.060;-0.086;2023-04-08T06:57:27;101107.77;;;5.61;70.91
57885;BME280;43703;51.060;-0.086;2023-04-08T06:59:52;101107.12;;;5.71;71.25
57885;BME280;43703;51.060;-0.086;2023-04-08T07:02:17;101107.37;;;5.85;72.55
57885;BME280;43703;51.060;-0.086;2023-04-08T07:04:43;101108.49;;;6.11;72.75
57885;BME280;43703;51.060;-0.086;2023-04-08T07:07:09;101112.66;;;7.08;71.17
57885;BME280;43703;51.060;-0.086;2023-04-08T07:09:34;101114.44;;;8.28;67.10
57885;BME280;43703;51.060;-0.086;2023-04-08T07:11:59;101116.45;;;9.69;67.99
57885;BME280;43703;51.060;-0.086;2023-04-08T07:14:24;101113.79;;;11.07;65.51
57885;BME280;43703;51.060;-0.086;2023-04-08T07:16:50;101116.49;;;12.34;65.28
57885;BME280;43703;51.060;-0.086;2023-04-08T07:19:15;101118.93;;;13.52;67.00
57885;BME280;43703;51.060;-0.086;2023-04-08T07:21:41;101121.14;;;13.23;54.95
57885;BME280;43703;51.060;-0.086;2023-04-08T07:24:07;101119.02;;;15.29;60.87
57885;BME280;43703;51.060;-0.086;2023-04-08T07:26:32;101121.19;;;15.47;56.51
57885;BME280;43703;51.060;-0.086;2023-04-08T07:28:57;101123.84;;;16.67;58.18
57885;BME280;43703;51.060;-0.086;2023-04-08T07:31:23;101128.50;;;17.26;54.10
57885;BME280;43703;51.060;-0.086;2023-04-08T07:33:49;101131.60;;;17.80;51.42
57885;BME280;43703;51.060;-0.086;2023-04-08T07:36:14;101133.96;;;17.75;47.68
57885;BME280;43703;51.060;-0.086;2023-04-08T07:38:40;101130.15;;;18.33;43.01
57885;BME280;43703;51.060;-0.086;2023-04-08T07:41:06;101135.08;;;19.37;42.68
57885;BME280;43703;51.060;-0.086;2023-04-08T07:43:32;101138.03;;;18.49;40.54
57885;BME280;43703;51.060;-0.086;2023-04-08T07:45:59;101137.13;;;20.04;39.17
57885;BME280;43703;51.060;-0.086;2023-04-08T07:48:23;101138.17;;;20.24;38.74
57885;BME280;43703;51.060;-0.086;2023-04-08T07:50:49;101138.30;;;20.06;35.67
57885;BME280;43703;51.060;-0.086;2023-04-08T07:53:15;101146.11;;;16.18;39.24
57885;BME280;43703;51.060;-0.086;2023-04-08T07:55:41;101148.43;;;17.54;40.21
57885;BME280;43703;51.060;-0.086;2023-04-08T07:58:06;101149.07;;;18.81;39.26
57885;BME280;43703;51.060;-0.086;2023-04-08T08:00:32;101151.60;;;17.53;36.61
57885;BME280;43703;51.060;-0.086;2023-04-08T08:02:58;101154.92;;;17.93;35.18
57885;BME280;43703;51.060;-0.086;2023-04-08T08:05:23;101153.37;;;15.05;42.96
57885;BME280;43703;51.060;-0.086;2023-04-08T08:07:49;101152.87;;;16.58;39.67
57885;BME280;43703;51.060;-0.086;2023-04-08T08:10:15;101153.04;;;14.87;42.47
57885;BME280;43703;51.060;-0.086;2023-04-08T08:12:40;101148.93;;;17.19;40.40
57885;BME280;43703;51.060;-0.086;2023-04-08T08:15:07;101149.29;;;17.58;39.19
57885;BME280;43703;51.060;-0.086;2023-04-08T08:17:32;101149.12;;;16.29;37.72
57885;BME280;43703;51.060;-0.086;2023-04-08T08:19:57;101154.08;;;16.78;39.87
57885;BME280;43703;51.060;-0.086;2023-04-08T08:22:23;101153.81;;;18.70;38.41
57885;BME280;43703;51.060;-0.086;2023-04-08T08:24:49;101158.54;;;16.39;39.06
57885;BME280;43703;51.060;-0.086;2023-04-08T08:27:14;101155.70;;;18.96;36.56
57885;BME280;43703;51.060;-0.086;2023-04-08T08:29:40;101157.94;;;20.18;34.29
57885;BME280;43703;51.060;-0.086;2023-04-08T08:32:06;101160.69;;;19.28;34.64
57885;BME280;43703;51.060;-0.086;2023-04-08T08:34:32;101166.67;;;17.18;37.16
57885;BME280;43703;51.060;-0.086;2023-04-08T08:36:58;101167.87;;;19.15;36.09
57885;BME280;43703;51.060;-0.086;2023-04-08T08:39:23;101166.24;;;21.51;33.82
57885;BME280;43703;51.060;-0.086;2023-04-08T08:41:50;101170.19;;;21.62;33.65
57885;BME280;43703;51.060;-0.086;2023-04-08T08:44:15;101173.97;;;17.19;34.85
57885;BME280;43703;51.060;-0.086;2023-04-08T08:46:43;101167.85;;;21.35;33.10
57885;BME280;43703;51.060;-0.086;2023-04-08T08:49:06;101169.32;;;20.93;32.21
57885;BME280;43703;51.060;-0.086;2023-04-08T08:51:32;101172.81;;;22.25;32.43
57885;BME280;43703;51.060;-0.086;2023-04-08T08:54:01;101173.58;;;23.28;31.13
57885;BME280;43703;51.060;-0.086;2023-04-08T08:56:23;101174.67;;;23.38;30.72
57885;BME280;43703;51.060;-0.086;2023-04-08T08:58:49;101171.17;;;23.77;30.20
57885;BME280;43703;51.060;-0.086;2023-04-08T09:03:41;101172.04;;;22.45;30.06
57885;BME280;43703;51.060;-0.086;2023-04-08T09:06:07;101176.48;;;21.35;30.73
57885;BME280;43703;51.060;-0.086;2023-04-08T09:08:34;101176.39;;;19.84;32.15
57885;BME280;43703;51.060;-0.086;2023-04-08T09:13:24;101179.47;;;17.97;36.04
57885;BME280;43703;51.060;-0.086;2023-04-08T09:18:20;101180.00;;;20.35;36.14
57885;BME280;43703;51.060;-0.086;2023-04-08T09:20:50;101180.34;;;20.60;33.09
57885;BME280;43703;51.060;-0.086;2023-04-08T09:23:06;101181.34;;;22.22;31.37
57885;BME280;43703;51.060;-0.086;2023-04-08T09:25:33;101184.69;;;21.09;29.32
57885;BME280;43703;51.060;-0.086;2023-04-08T09:27:58;101182.16;;;21.61;30.37
57885;BME280;43703;51.060;-0.086;2023-04-08T09:30:25;101188.83;;;17.36;34.70
57885;BME280;43703;51.060;-0.086;2023-04-08T09:32:51;101184.08;;;19.82;33.81
57885;BME280;43703;51.060;-0.086;2023-04-08T09:35:17;101181.26;;;19.65;33.17
57885;BME280;43703;51.060;-0.086;2023-04-08T09:37:41;101181.24;;;19.16;32.27
57885;BME280;43703;51.060;-0.086;2023-04-08T09:40:08;101179.05;;;20.27;30.30
57885;BME280;43703;51.060;-0.086;2023-04-08T09:42:34;101180.83;;;15.19;37.02
57885;BME280;43703;51.060;-0.086;2023-04-08T09:44:59;101179.84;;;16.86;36.93
57885;BME280;43703;51.060;-0.086;2023-04-08T09:47:27;101181.40;;;19.35;34.13
57885;BME280;43703;51.060;-0.086;2023-04-08T09:49:54;101177.96;;;20.33;30.38
57885;BME280;43703;51.060;-0.086;2023-04-08T09:52:20;101177.99;;;21.20;30.02
57885;BME280;43703;51.060;-0.086;2023-04-08T09:54:49;101179.41;;;19.51;34.69
57885;BME280;43703;51.060;-0.086;2023-04-08T09:57:09;101180.92;;;21.75;29.27
57885;BME280;43703;51.060;-0.086;2023-04-08T09:59:34;101185.25;;;21.51;30.24
57885;BME280;43703;51.060;-0.086;2023-04-08T10:02:03;101182.50;;;22.26;28.36
57885;BME280;43703;51.060;-0.086;2023-04-08T10:04:25;101182.72;;;18.54;29.60
57885;BME280;43703;51.060;-0.086;2023-04-08T10:06:53;101186.15;;;17.27;34.39
57885;BME280;43703;51.060;-0.086;2023-04-08T10:09:16;101184.56;;;18.61;34.94
57885;BME280;43703;51.060;-0.086;2023-04-08T10:11:42;101187.60;;;18.40;32.25
57885;BME280;43703;51.060;-0.086;2023-04-08T10:14:08;101185.25;;;18.68;30.37
57885;BME280;43703;51.060;-0.086;2023-04-08T10:16:33;101184.52;;;18.35;31.18
57885;BME280;43703;51.060;-0.086;2023-04-08T10:18:59;101181.72;;;17.68;33.69
57885;BME280;43703;51.060;-0.086;2023-04-08T10:21:30;101182.29;;;14.93;36.56
57885;BME280;43703;51.060;-0.086;2023-04-08T10:23:53;101179.60;;;15.63;36.69
57885;BME280;43703;51.060;-0.086;2023-04-08T10:28:40;101172.47;;;15.73;36.03
57885;BME280;43703;51.060;-0.086;2023-04-08T10:31:05;101176.27;;;13.71;37.71
57885;BME280;43703;51.060;-0.086;2023-04-08T10:33:32;101166.99;;;15.73;39.31
57885;BME280;43703;51.060;-0.086;2023-04-08T10:35:59;101173.64;;;16.47;34.84
57885;BME280;43703;51.060;-0.086;2023-04-08T10:38:20;101169.46;;;17.02;35.52
57885;BME280;43703;51.060;-0.086;2023-04-08T10:40:47;101173.53;;;17.00;35.98
57885;BME280;43703;51.060;-0.086;2023-04-08T10:43:11;101183.03;;;17.55;33.16
57885;BME280;43703;51.060;-0.086;2023-04-08T10:45:35;101177.30;;;16.90;32.93
57885;BME280;43703;51.060;-0.086;2023-04-08T10:50:25;101185.32;;;14.85;34.26
57885;BME280;43703;51.060;-0.086;2023-04-08T10:52:51;101188.47;;;14.03;35.39
57885;BME280;43703;51.060;-0.086;2023-04-08T10:55:16;101184.15;;;14.38;35.42
57885;BME280;43703;51.060;-0.086;2023-04-08T10:57:40;101180.78;;;14.05;34.98
57885;BME280;43703;51.060;-0.086;2023-04-08T11:00:09;101181.40;;;11.97;40.14
57885;BME280;43703;51.060;-0.086;2023-04-08T11:02:32;101178.42;;;13.16;37.51
57885;BME280;43703;51.060;-0.086;2023-04-08T11:04:57;101177.99;;;12.83;37.30
57885;BME280;43703;51.060;-0.086;2023-04-08T11:07:20;101179.28;;;13.62;39.00
57885;BME280;43703;51.060;-0.086;2023-04-08T11:09:45;101177.00;;;14.07;39.72
57885;BME280;43703;51.060;-0.086;2023-04-08T11:12:10;101170.84;;;15.00;39.77
57885;BME280;43703;51.060;-0.086;2023-04-08T11:14:35;101169.47;;;14.37;36.79
57885;BME280;43703;51.060;-0.086;2023-04-08T11:17:01;101169.23;;;15.36;37.70
57885;BME280;43703;51.060;-0.086;2023-04-08T11:19:25;101164.28;;;16.17;35.95
57885;BME280;43703;51.060;-0.086;2023-04-08T11:21:50;101158.65;;;15.44;36.59
57885;BME280;43703;51.060;-0.086;2023-04-08T11:24:15;101155.27;;;15.96;33.87
57885;BME280;43703;51.060;-0.086;2023-04-08T11:26:41;101156.55;;;18.15;31.29
57885;BME280;43703;51.060;-0.086;2023-04-08T11:29:09;101150.97;;;18.07;31.68
57885;BME280;43703;51.060;-0.086;2023-04-08T11:31:31;101152.62;;;18.51;34.14
57885;BME280;43703;51.060;-0.086;2023-04-08T11:33:56;101157.35;;;18.36;33.07
57885;BME280;43703;51.060;-0.086;2023-04-08T11:36:21;101152.39;;;17.93;34.30
57885;BME280;43703;51.060;-0.086;2023-04-08T11:38:46;101149.00;;;19.38;33.53
57885;BME280;43703;51.060;-0.086;2023-04-08T11:41:11;101152.33;;;18.02;33.13
57885;BME280;43703;51.060;-0.086;2023-04-08T11:43:36;101151.47;;;16.89;32.26
57885;BME280;43703;51.060;-0.086;2023-04-08T11:46:08;101155.60;;;14.46;35.05
57885;BME280;43703;51.060;-0.086;2023-04-08T11:48:26;101158.30;;;16.27;33.13
57885;BME280;43703;51.060;-0.086;2023-04-08T11:51:01;101156.32;;;16.38;35.35
57885;BME280;43703;51.060;-0.086;2023-04-08T11:53:17;101154.03;;;15.29;36.25
57885;BME280;43703;51.060;-0.086;2023-04-08T11:55:41;101156.39;;;13.96;37.41
57885;BME280;43703;51.060;-0.086;2023-04-08T11:58:07;101149.76;;;15.34;36.15
57885;BME280;43703;51.060;-0.086;2023-04-08T12:00:31;101148.09;;;15.50;34.77
57885;BME280;43703;51.060;-0.086;2023-04-08T12:02:56;101144.04;;;16.21;33.33
57885;BME280;43703;51.060;-0.086;2023-04-08T12:05:21;101144.98;;;14.45;35.87
57885;BME280;43703;51.060;-0.086;2023-04-08T12:07:46;101143.56;;;13.50;38.21
57885;BME280;43703;51.060;-0.086;2023-04-08T12:10:12;101137.51;;;15.56;36.07
57885;BME280;43703;51.060;-0.086;2023-04-08T12:12:37;101139.81;;;15.11;36.18
57885;BME280;43703;51.060;-0.086;2023-04-08T12:15:01;101144.19;;;13.22;35.30
57885;BME280;43703;51.060;-0.086;2023-04-08T12:17:26;101141.13;;;13.76;37.46
57885;BME280;43703;51.060;-0.086;2023-04-08T12:19:51;101138.52;;;13.82;38.46
57885;BME280;43703;51.060;-0.086;2023-04-08T12:22:16;101137.50;;;15.10;37.77
57885;BME280;43703;51.060;-0.086;2023-04-08T12:24:41;101136.41;;;14.31;38.07
57885;BME280;43703;51.060;-0.086;2023-04-08T12:27:06;101137.73;;;13.52;38.01
57885;BME280;43703;51.060;-0.086;2023-04-08T12:29:31;101135.88;;;14.05;38.46
57885;BME280;43703;51.060;-0.086;2023-04-08T12:31:57;101130.68;;;15.20;37.10
57885;BME280;43703;51.060;-0.086;2023-04-08T12:34:22;101131.67;;;14.92;37.13
57885;BME280;43703;51.060;-0.086;2023-04-08T12:36:47;101126.22;;;14.29;35.24
57885;BME280;43703;51.060;-0.086;2023-04-08T12:39:12;101129.16;;;15.58;35.38
57885;BME280;43703;51.060;-0.086;2023-04-08T12:41:37;101124.58;;;13.77;34.68
57885;BME280;43703;51.060;-0.086;2023-04-08T12:44:03;101118.76;;;14.24;36.51
57885;BME280;43703;51.060;-0.086;2023-04-08T12:46:28;101125.16;;;13.05;38.30